Time;durP1;ratioP1;P1;durP2;ratioP2;P2;SDS_P1;SDS_P2;PMS_P1;PMS_P2;Temp;Humidity;BMP_temperature;BMP_pressure;BME280_temperature;BME280_humidity;BME280_pressure;Samples;Min_cycle;Max_cycle;Signal;HPM_P1;HPM_P2
2023/10/28 00:01:37;;;;;;;23.05;13.23;;;10.20;99.90;;;;;;5143303;27;20047;-86
2023/10/28 00:04:05;;;;;;;20.80;13.23;;;10.00;99.90;;;;;;5105303;27;20050;-84
2023/10/28 00:06:31;;;;;;;16.58;12.00;;;9.90;99.90;;;;;;5106757;27;20512;-84
2023/10/28 00:08:57;;;;;;;20.05;12.98;;;9.90;99.90;;;;;;5104494;27;20043;-87
2023/10/28 00:11:23;;;;;;;18.35;13.13;;;9.90;99.90;;;;;;5102711;27;20114;-86
2023/10/28 00:13:49;;;;;;;22.05;13.55;;;11.60;99.90;;;;;;5119802;27;20051;-86
2023/10/28 00:16:19;;;;;;;21.98;13.35;;;11.80;99.90;;;;;;5119334;27;20118;-85
2023/10/28 00:18:44;;;;;;;22.17;14.27;;;10.00;99.90;;;;;;5102847;27;20071;-85
2023/10/28 00:21:11;;;;;;;21.25;13.27;;;10.00;99.90;;;;;;5105239;27;20096;-88
2023/10/28 00:23:37;;;;;;;20.80;14.02;;;11.70;99.90;;;;;;5122596;27;20047;-87
2023/10/28 00:26:04;;;;;;;32.50;16.55;;;10.00;99.90;;;;;;5121381;27;20039;-85
2023/10/28 00:28:33;;;;;;;26.70;15.75;;;10.00;99.90;;;;;;5102650;27;20558;-87
2023/10/28 00:31:03;;;;;;;30.73;17.10;;;10.60;99.90;;;;;;5102961;27;20047;-84
2023/10/28 00:33:30;;;;;;;22.80;15.05;;;10.00;99.90;;;;;;5106583;27;20061;-84
2023/10/28 00:35:55;;;;;;;26.92;15.88;;;10.00;99.90;;;;;;5104371;27;20050;-87
2023/10/28 00:38:22;;;;;;;25.60;16.52;;;10.00;99.90;;;;;;5119963;28;20061;-88
2023/10/28 00:40:48;;;;;;;35.65;18.92;;;10.00;99.90;;;;;;5118815;27;20059;-85
2023/10/28 00:43:14;;;;;;;27.60;17.90;;;10.00;99.90;;;;;;5105269;27;20119;-87
2023/10/28 00:45:40;;;;;;;32.63;19.42;;;10.00;99.90;;;;;;5122965;27;20054;-85
2023/10/28 00:48:07;;;;;;;34.35;20.65;;;10.00;99.90;;;;;;5121037;27;20067;-89
2023/10/28 00:50:34;;;;;;;32.33;20.38;;;10.00;99.90;;;;;;5118468;28;20089;-85
2023/10/28 00:53:02;;;;;;;40.65;23.60;;;11.80;99.90;;;;;;5132375;27;20038;-89
2023/10/28 00:55:30;;;;;;;34.97;23.17;;;10.10;99.90;;;;;;5107271;27;20055;-88
2023/10/28 00:57:59;;;;;;;36.42;22.73;;;11.40;99.90;;;;;;5124388;27;20039;-88
2023/10/28 01:00:25;;;;;;;37.55;24.33;;;11.40;99.90;;;;;;5127312;27;20118;-89
2023/10/28 01:02:52;;;;;;;40.13;24.02;;;10.10;99.90;;;;;;5110607;27;20050;-85
2023/10/28 01:05:19;;;;;;;43.65;25.15;;;10.10;99.90;;;;;;5123547;27;20130;-86
2023/10/28 01:07:46;;;;;;;39.92;25.73;;;10.10;99.90;;;;;;5123073;27;20039;-85
2023/10/28 01:10:12;;;;;;;39.60;25.00;;;10.10;99.90;;;;;;5114293;27;20414;-88
2023/10/28 01:12:38;;;;;;;44.80;26.90;;;10.10;99.90;;;;;;5122580;27;20039;-87
2023/10/28 01:15:05;;;;;;;48.17;27.70;;;10.50;99.90;;;;;;5125201;27;20031;-85
2023/10/28 01:17:31;;;;;;;45.70;26.45;;;10.10;99.90;;;;;;5092891;27;20038;-85
2023/10/28 01:19:57;;;;;;;45.72;27.05;;;10.10;99.90;;;;;;5125389;27;20126;-87
2023/10/28 01:22:23;;;;;;;51.72;27.25;;;11.50;99.90;;;;;;5123579;27;20126;-85
2023/10/28 01:24:50;;;;;;;48.70;27.40;;;11.50;99.90;;;;;;5122982;27;20126;-84
2023/10/28 01:27:19;;;;;;;50.22;28.95;;;10.00;99.90;;;;;;5113416;27;20084;-85
2023/10/28 01:29:46;;;;;;;47.15;28.08;;;11.50;99.90;;;;;;5122304;27;20372;-85
2023/10/28 01:32:12;;;;;;;49.28;28.48;;;11.60;99.90;;;;;;5125119;27;20050;-85
2023/10/28 01:35:04;;;;;;;42.85;26.02;;;11.70;99.90;;;;;;5126294;27;20099;-85
2023/10/28 01:37:30;;;;;;;43.03;26.67;;;10.10;99.90;;;;;;5118783;27;20063;-88
2023/10/28 01:39:56;;;;;;;47.22;27.73;;;10.80;99.90;;;;;;5118621;27;20112;-84
2023/10/28 01:42:30;;;;;;;56.45;29.75;;;11.00;99.90;;;;;;5124742;27;20418;-87
2023/10/28 01:44:56;;;;;;;43.40;25.88;;;10.00;99.90;;;;;;5122331;27;20610;-88
2023/10/28 01:47:22;;;;;;;45.60;27.65;;;10.00;99.90;;;;;;5119225;27;20118;-85
2023/10/28 01:49:48;;;;;;;43.28;25.95;;;10.10;99.90;;;;;;5118997;27;20408;-87
2023/10/28 01:52:14;;;;;;;49.58;26.08;;;10.00;99.90;;;;;;5105021;27;20070;-88
2023/10/28 01:54:40;;;;;;;54.03;29.15;;;10.00;99.90;;;;;;5122173;27;20074;-87
2023/10/28 01:57:07;;;;;;;43.33;27.40;;;10.00;99.90;;;;;;5103262;27;20096;-87
2023/10/28 01:59:33;;;;;;;47.38;27.98;;;11.60;99.90;;;;;;5118564;27;20082;-87
2023/10/28 02:02:02;;;;;;;41.58;24.73;;;11.30;99.90;;;;;;5118954;27;20036;-86
2023/10/28 02:04:31;;;;;;;45.25;27.40;;;11.50;99.90;;;;;;5122457;27;20073;-87
2023/10/28 02:06:57;;;;;;;43.75;24.95;;;9.90;99.90;;;;;;5117808;27;20131;-90
2023/10/28 02:09:23;;;;;;;42.00;26.45;;;9.90;99.90;;;;;;5100990;28;20414;-88
2023/10/28 02:11:52;;;;;;;38.22;25.25;;;10.90;99.90;;;;;;5118813;27;20608;-87
2023/10/28 02:14:18;;;;;;;42.10;25.35;;;9.90;99.90;;;;;;5085927;28;20077;-89
2023/10/28 02:16:43;;;;;;;42.17;24.20;;;10.00;99.90;;;;;;5113596;27;20058;-88
2023/10/28 02:19:10;;;;;;;40.53;26.38;;;9.90;99.90;;;;;;5105222;27;20043;-85
2023/10/28 02:21:35;;;;;;;40.92;24.73;;;11.60;99.90;;;;;;5104451;27;20031;-85
2023/10/28 02:24:03;;;;;;;39.03;24.60;;;9.90;99.90;;;;;;5120591;27;20035;-88
2023/10/28 02:26:29;;;;;;;32.78;23.58;;;9.90;99.90;;;;;;5118970;27;20051;-89
2023/10/28 02:28:55;;;;;;;39.08;24.27;;;10.70;99.90;;;;;;5118314;27;20039;-86
2023/10/28 02:31:21;;;;;;;39.20;24.33;;;9.90;99.90;;;;;;5105234;27;20061;-87
2023/10/28 02:33:46;;;;;;;37.83;24.30;;;10.60;99.90;;;;;;5121820;27;20047;-87
2023/10/28 02:36:12;;;;;;;39.58;22.98;;;9.90;99.90;;;;;;5101726;27;20054;-88
2023/10/28 02:38:38;;;;;;;50.38;24.65;;;11.10;99.90;;;;;;5101263;28;20035;-89
2023/10/28 02:41:07;;;;;;;33.42;23.10;;;11.10;99.90;;;;;;5119363;27;20131;-88
2023/10/28 02:43:37;;;;;;;33.40;22.05;;;9.90;99.90;;;;;;5120858;27;20123;-87
2023/10/28 02:46:04;;;;;;;36.40;22.30;;;9.80;99.90;;;;;;5120861;27;20107;-89
2023/10/28 02:48:30;;;;;;;36.55;22.27;;;11.40;99.90;;;;;;5118739;27;20035;-85
2023/10/28 02:51:03;;;;;;;38.38;22.00;;;11.00;99.90;;;;;;5117544;27;20039;-87
2023/10/28 02:53:31;;;;;;;39.77;22.20;;;9.80;99.90;;;;;;5121918;27;20047;-85
2023/10/28 02:55:57;;;;;;;32.80;21.52;;;11.10;99.90;;;;;;5121194;27;20050;-85
2023/10/28 02:58:23;;;;;;;35.58;21.92;;;11.50;99.90;;;;;;5096523;27;20039;-86
2023/10/28 03:00:50;;;;;;;31.77;21.58;;;9.70;99.90;;;;;;5103912;27;20091;-85
2023/10/28 03:03:15;;;;;;;30.13;20.73;;;11.10;99.90;;;;;;5101207;28;20486;-84
2023/10/28 03:05:41;;;;;;;32.17;20.73;;;11.60;99.90;;;;;;5118310;27;20062;-86
2023/10/28 03:08:07;;;;;;;36.33;21.92;;;11.10;99.90;;;;;;5120030;27;20036;-86
2023/10/28 03:10:32;;;;;;;31.95;20.55;;;9.60;99.90;;;;;;5104334;27;20416;-85
2023/10/28 03:12:58;;;;;;;33.08;21.35;;;11.30;99.90;;;;;;5103200;27;20062;-86
2023/10/28 03:15:24;;;;;;;28.05;20.52;;;10.10;99.90;;;;;;5099732;28;20055;-86
2023/10/28 03:17:51;;;;;;;31.42;18.90;;;9.50;99.90;;;;;;5100093;28;20502;-85
2023/10/28 03:20:19;;;;;;;32.67;20.83;;;11.20;99.90;;;;;;5120918;27;20092;-84
2023/10/28 03:22:45;;;;;;;33.25;19.02;;;11.30;99.90;;;;;;5121319;27;20039;-86
2023/10/28 03:25:10;;;;;;;26.90;19.90;;;10.40;99.90;;;;;;5118036;27;20383;-87
2023/10/28 03:27:36;;;;;;;35.25;18.98;;;9.50;99.90;;;;;;5101126;28;20032;-87
2023/10/28 03:30:08;;;;;;;28.70;18.15;;;10.30;99.90;;;;;;5120044;27;20039;-88
2023/10/28 03:32:36;;;;;;;31.08;18.77;;;10.30;99.90;;;;;;5120225;27;20035;-87
2023/10/28 03:35:02;;;;;;;27.10;17.55;;;11.30;99.90;;;;;;5086385;27;20043;-84
2023/10/28 03:37:30;;;;;;;26.73;17.30;;;9.50;99.90;;;;;;5117449;27;20116;-87
2023/10/28 03:39:56;;;;;;;26.77;17.63;;;11.40;99.90;;;;;;5107646;27;20473;-85
2023/10/28 03:42:22;;;;;;;27.58;17.08;;;9.40;99.90;;;;;;5100198;28;20138;-85
2023/10/28 03:44:48;;;;;;;28.52;16.15;;;11.40;99.90;;;;;;5117086;27;20047;-89
2023/10/28 03:47:14;;;;;;;28.48;17.77;;;9.50;99.90;;;;;;5109541;27;20126;-84
2023/10/28 03:49:39;;;;;;;28.77;16.92;;;11.10;99.90;;;;;;5107526;27;20127;-86
2023/10/28 03:52:05;;;;;;;23.23;17.42;;;11.60;99.90;;;;;;5119436;27;20491;-84
2023/10/28 03:54:31;;;;;;;24.73;16.70;;;9.40;99.90;;;;;;5116505;27;20353;-85
2023/10/28 03:56:56;;;;;;;34.38;17.38;;;10.50;99.90;;;;;;5116993;27;20475;-87
2023/10/28 03:59:22;;;;;;;26.73;16.80;;;8.60;99.90;;;;;;5117010;27;20096;-86
2023/10/28 04:01:47;;;;;;;25.77;15.95;;;9.40;99.90;;;;;;5116511;27;20055;-87
2023/10/28 04:04:13;;;;;;;28.40;16.65;;;11.50;99.90;;;;;;5119472;27;20036;-90
2023/10/28 04:06:38;;;;;;;32.58;18.90;;;9.80;99.90;;;;;;5120526;27;20432;-85
2023/10/28 04:09:07;;;;;;;29.95;16.50;;;11.10;99.90;;;;;;5118294;27;20466;-87
2023/10/28 04:11:34;;;;;;;23.27;16.17;;;9.60;99.90;;;;;;5116702;27;20051;-87
2023/10/28 04:13:59;;;;;;;22.30;16.00;;;9.40;99.90;;;;;;5115980;27;20044;-88
2023/10/28 04:16:25;;;;;;;26.60;17.48;;;9.40;99.90;;;;;;5120749;27;20553;-89
2023/10/28 04:18:52;;;;;;;28.48;16.95;;;9.40;99.90;;;;;;5120711;27;20035;-85
2023/10/28 04:21:18;;;;;;;22.40;15.10;;;9.40;99.90;;;;;;5099988;28;20586;-85
2023/10/28 04:23:43;;;;;;;23.33;16.48;;;11.20;99.90;;;;;;5099139;28;20524;-87
2023/10/28 04:26:09;;;;;;;30.10;16.25;;;9.40;99.90;;;;;;5100554;28;20134;-85
2023/10/28 04:28:35;;;;;;;26.42;15.85;;;9.40;99.90;;;;;;5102426;27;20031;-86
2023/10/28 04:31:01;;;;;;;25.15;15.63;;;9.40;99.90;;;;;;5119097;27;20118;-87
2023/10/28 04:33:28;;;;;;;24.17;17.02;;;11.00;99.90;;;;;;5117410;27;20517;-88
2023/10/28 04:35:54;;;;;;;31.15;17.20;;;9.40;99.90;;;;;;5098661;28;20072;-87
2023/10/28 04:38:23;;;;;;;32.92;17.33;;;9.40;99.90;;;;;;5120505;27;20047;-84
2023/10/28 04:40:51;;;;;;;32.35;16.38;;;9.30;99.90;;;;;;5097868;28;20043;-89
2023/10/28 04:43:19;;;;;;;25.02;16.95;;;10.30;99.90;;;;;;5099355;28;20461;-86
2023/10/28 04:45:45;;;;;;;29.40;17.10;;;9.30;99.90;;;;;;5082768;28;20066;-89
2023/10/28 04:48:11;;;;;;;32.10;17.77;;;10.80;99.90;;;;;;5118989;28;20446;-87
2023/10/28 04:50:37;;;;;;;31.60;19.75;;;9.30;99.90;;;;;;5102012;28;20125;-88
2023/10/28 04:53:02;;;;;;;27.83;17.42;;;11.30;99.90;;;;;;5118989;28;20122;-86
2023/10/28 04:55:28;;;;;;;29.40;16.58;;;10.70;99.90;;;;;;5099411;28;20086;-86
2023/10/28 04:57:54;;;;;;;31.27;17.67;;;9.30;99.90;;;;;;5115273;28;20394;-85
2023/10/28 05:00:19;;;;;;;31.52;16.42;;;9.40;99.90;;;;;;5102907;28;20039;-86
2023/10/28 05:02:45;;;;;;;28.27;17.90;;;9.40;99.90;;;;;;5102446;28;20108;-86
2023/10/28 05:05:13;;;;;;;30.15;16.75;;;9.40;99.90;;;;;;5083529;28;20043;-88
2023/10/28 05:07:39;;;;;;;29.90;17.75;;;9.40;99.90;;;;;;5099507;28;20463;-88
2023/10/28 05:10:05;;;;;;;29.92;17.20;;;9.40;99.90;;;;;;5100155;28;20070;-89
2023/10/28 05:12:32;;;;;;;30.15;16.85;;;9.40;99.90;;;;;;5118239;28;20031;-84
2023/10/28 05:14:59;;;;;;;29.25;16.50;;;9.40;99.90;;;;;;5069124;28;20082;-84
2023/10/28 05:17:27;;;;;;;24.45;17.15;;;9.40;99.90;;;;;;5115209;28;20040;-87
2023/10/28 05:19:56;;;;;;;29.20;17.08;;;9.40;99.90;;;;;;5115102;28;20498;-83
2023/10/28 05:22:21;;;;;;;30.95;16.63;;;9.90;99.90;;;;;;5125079;28;20087;-84
2023/10/28 05:24:47;;;;;;;33.78;17.48;;;9.40;99.90;;;;;;5119785;28;20558;-87
2023/10/28 05:27:13;;;;;;;29.55;17.88;;;10.80;99.90;;;;;;5100420;28;20088;-86
2023/10/28 05:29:41;;;;;;;33.38;18.05;;;9.40;99.90;;;;;;5098634;28;20509;-89
2023/10/28 05:32:09;;;;;;;30.33;17.80;;;9.40;99.90;;;;;;5100357;28;20695;-84
2023/10/28 05:34:35;;;;;;;43.60;20.85;;;11.20;99.90;;;;;;5097094;28;20039;-88
2023/10/28 05:37:00;;;;;;;32.17;17.45;;;11.20;99.90;;;;;;5116332;28;20093;-84
2023/10/28 05:39:27;;;;;;;31.92;16.60;;;9.40;99.90;;;;;;5122560;27;20107;-85
2023/10/28 05:41:52;;;;;;;28.30;17.30;;;10.70;99.90;;;;;;5122840;27;20529;-83
2023/10/28 05:44:18;;;;;;;32.67;18.45;;;10.90;99.90;;;;;;5103600;27;20046;-86
2023/10/28 05:46:44;;;;;;;33.45;17.27;;;9.40;99.90;;;;;;5118875;27;20039;-84
2023/10/28 05:49:12;;;;;;;44.35;20.30;;;11.20;99.90;;;;;;5110653;27;20206;-84
2023/10/28 05:51:39;;;;;;;31.23;18.63;;;10.40;99.90;;;;;;5102564;28;20051;-91
2023/10/28 05:54:04;;;;;;;36.33;17.83;;;9.50;99.90;;;;;;5119626;27;20049;-89
2023/10/28 05:56:30;;;;;;;39.67;19.02;;;9.50;99.90;;;;;;5122652;27;20143;-82
2023/10/28 05:58:58;;;;;;;34.25;18.70;;;9.50;99.90;;;;;;5122327;27;20478;-84
2023/10/28 06:01:25;;;;;;;37.65;18.90;;;10.60;99.90;;;;;;5118529;27;20032;-85
2023/10/28 06:03:51;;;;;;;31.73;18.33;;;9.50;99.90;;;;;;5118944;27;20042;-84
2023/10/28 06:06:17;;;;;;;34.67;18.55;;;9.50;99.90;;;;;;5104086;27;20086;-86
2023/10/28 06:08:43;;;;;;;39.08;19.88;;;10.90;99.90;;;;;;5104802;27;20031;-83
2023/10/28 06:11:09;;;;;;;31.95;17.33;;;11.20;99.90;;;;;;5120903;27;20471;-84
2023/10/28 06:13:36;;;;;;;35.03;18.08;;;9.60;99.90;;;;;;5100975;28;20040;-85
2023/10/28 06:16:03;;;;;;;28.15;18.35;;;10.10;99.90;;;;;;5102161;28;20051;-88
2023/10/28 06:18:29;;;;;;;25.38;16.77;;;9.50;99.90;;;;;;5127019;27;20424;-86
2023/10/28 06:20:55;;;;;;;28.27;17.90;;;9.50;99.90;;;;;;5100822;28;20476;-88
2023/10/28 06:23:21;;;;;;;31.23;16.95;;;9.50;99.90;;;;;;5121946;27;20032;-84
2023/10/28 06:25:46;;;;;;;33.50;16.65;;;9.90;99.90;;;;;;5122679;27;20049;-83
2023/10/28 06:28:15;;;;;;;30.98;17.50;;;9.60;99.90;;;;;;5118991;27;20082;-87
2023/10/28 06:30:48;;;;;;;28.60;16.80;;;9.60;99.90;;;;;;5100814;28;20535;-85
2023/10/28 06:33:13;;;;;;;30.35;16.48;;;9.50;99.90;;;;;;5120726;27;20044;-85
2023/10/28 06:35:39;;;;;;;25.58;16.55;;;9.60;99.90;;;;;;5104764;27;20199;-86
2023/10/28 06:38:06;;;;;;;29.83;16.00;;;9.60;99.90;;;;;;5104415;27;20646;-83
2023/10/28 06:40:32;;;;;;;30.17;16.38;;;9.70;99.90;;;;;;5084476;28;20044;-88
2023/10/28 06:42:58;;;;;;;20.90;14.80;;;10.20;99.90;;;;;;5117878;27;20047;-86
2023/10/28 06:45:24;;;;;;;27.65;14.32;;;9.60;99.90;;;;;;5105015;27;20046;-83
2023/10/28 06:47:50;;;;;;;31.33;15.40;;;9.70;99.90;;;;;;5105044;27;20123;-87
2023/10/28 06:50:19;;;;;;;24.55;15.20;;;10.90;99.90;;;;;;5102061;27;20038;-87
2023/10/28 06:52:47;;;;;;;22.23;12.95;;;9.70;99.90;;;;;;5101483;28;20117;-84
2023/10/28 06:55:13;;;;;;;30.17;14.73;;;9.70;99.90;;;;;;5103710;27;20108;-87
2023/10/28 06:57:39;;;;;;;19.17;12.63;;;9.60;99.90;;;;;;5126414;27;20035;-85
2023/10/28 07:00:07;;;;;;;23.55;13.00;;;9.80;99.90;;;;;;5121049;27;20066;-83
2023/10/28 07:02:33;;;;;;;22.63;13.10;;;9.70;99.90;;;;;;5117704;27;20338;-84
2023/10/28 07:04:58;;;;;;;19.25;11.85;;;11.30;99.90;;;;;;5117326;27;20047;-84
2023/10/28 07:07:24;;;;;;;17.85;11.82;;;9.70;99.90;;;;;;5121118;27;20031;-84
2023/10/28 07:09:50;;;;;;;20.70;11.85;;;9.80;99.90;;;;;;5096344;28;20048;-85
2023/10/28 07:12:15;;;;;;;13.63;10.10;;;9.70;99.90;;;;;;5102701;27;20028;-86
2023/10/28 07:14:41;;;;;;;19.85;10.52;;;11.50;99.90;;;;;;5106788;28;20051;-87
2023/10/28 07:17:10;;;;;;;20.20;10.55;;;9.80;99.90;;;;;;5117741;27;20071;-86
2023/10/28 07:19:36;;;;;;;24.95;10.95;;;9.80;99.90;;;;;;5104077;27;20050;-86
2023/10/28 07:22:02;;;;;;;19.27;10.30;;;10.70;99.90;;;;;;5121002;27;20394;-88
2023/10/28 07:24:27;;;;;;;30.88;10.80;;;9.80;99.90;;;;;;5099882;28;20051;-87
2023/10/28 07:26:58;;;;;;;16.60;9.13;;;9.80;99.90;;;;;;5118220;27;20092;-87
2023/10/28 07:29:27;;;;;;;18.58;10.02;;;9.80;99.90;;;;;;5105562;27;20493;-87
2023/10/28 07:31:56;;;;;;;17.15;10.45;;;9.70;99.90;;;;;;5104369;27;20092;-86
2023/10/28 07:34:23;;;;;;;21.42;10.45;;;10.10;99.90;;;;;;5086441;27;20050;-88
2023/10/28 07:36:49;;;;;;;16.00;9.45;;;10.00;99.90;;;;;;5101656;28;20475;-86
2023/10/28 07:39:15;;;;;;;18.17;9.10;;;11.60;99.90;;;;;;5119606;27;20031;-88
2023/10/28 07:41:44;;;;;;;22.05;10.77;;;10.10;99.90;;;;;;5121693;27;20492;-88
2023/10/28 07:44:15;;;;;;;20.23;8.93;;;9.90;99.90;;;;;;5087739;27;20122;-91
2023/10/28 07:46:46;;;;;;;13.10;9.48;;;9.90;99.90;;;;;;5101514;28;20050;-90
2023/10/28 07:49:12;;;;;;;15.73;8.10;;;9.90;99.90;;;;;;5102493;27;20044;-85
2023/10/28 07:51:38;;;;;;;10.60;7.80;;;10.00;99.90;;;;;;5105093;27;20045;-88
2023/10/28 07:54:27;;;;;;;14.13;8.43;;;12.20;99.90;;;;;;5104383;27;20070;-90
2023/10/28 07:56:53;;;;;;;10.80;8.13;;;10.00;99.90;;;;;;5100332;28;20035;-86
2023/10/28 07:59:19;;;;;;;13.25;8.80;;;10.00;99.90;;;;;;5103245;27;20053;-91
2023/10/28 08:01:48;;;;;;;14.05;7.38;;;9.90;99.90;;;;;;5104534;27;20114;-87
2023/10/28 08:04:14;;;;;;;14.85;7.72;;;9.90;99.90;;;;;;5103918;27;20126;-87
2023/10/28 08:06:42;;;;;;;11.85;8.27;;;10.00;99.90;;;;;;5120536;27;20414;-88
2023/10/28 08:09:09;;;;;;;12.30;7.63;;;10.00;99.90;;;;;;5087204;28;20505;-85
2023/10/28 08:11:35;;;;;;;15.80;8.07;;;10.00;99.90;;;;;;5100974;28;20039;-88
2023/10/28 08:14:03;;;;;;;11.70;7.22;;;10.10;99.90;;;;;;5117774;27;20035;-89
2023/10/28 08:16:29;;;;;;;11.73;7.15;;;12.00;99.90;;;;;;5118412;27;20035;-89
2023/10/28 08:18:58;;;;;;;12.18;7.35;;;10.80;99.90;;;;;;5116213;27;20606;-89
2023/10/28 08:21:25;;;;;;;11.27;7.07;;;10.80;99.90;;;;;;5103476;27;20051;-90
2023/10/28 08:23:54;;;;;;;14.63;7.63;;;10.00;99.90;;;;;;5121306;27;20041;-91
2023/10/28 08:26:19;;;;;;;11.77;7.72;;;10.10;99.90;;;;;;5101623;27;20463;-88
2023/10/28 08:28:46;;;;;;;14.77;7.63;;;10.10;99.90;;;;;;5099022;28;20036;-90
2023/10/28 08:31:12;;;;;;;10.73;7.57;;;10.70;99.90;;;;;;5102963;28;20063;-87
2023/10/28 08:33:42;;;;;;;11.50;7.32;;;10.10;99.90;;;;;;5112872;27;20046;-89
2023/10/28 08:36:09;;;;;;;9.05;7.47;;;10.10;99.90;;;;;;5111226;28;20436;-85
2023/10/28 08:38:36;;;;;;;12.95;6.97;;;11.40;99.90;;;;;;5120562;27;20035;-89
2023/10/28 08:41:06;;;;;;;9.38;7.10;;;12.20;99.90;;;;;;5120240;27;20051;-89
2023/10/28 08:43:36;;;;;;;11.57;6.32;;;10.10;99.90;;;;;;5116672;28;20414;-90
2023/10/28 08:46:05;;;;;;;9.35;6.30;;;8.90;99.90;;;;;;5116950;28;20043;-89
2023/10/28 08:48:36;;;;;;;14.02;6.13;;;11.70;99.90;;;;;;5099491;28;20154;-88
2023/10/28 08:51:04;;;;;;;10.40;6.45;;;10.90;99.90;;;;;;5100207;28;20383;-89
2023/10/28 08:53:33;;;;;;;10.30;6.30;;;10.10;99.90;;;;;;5108836;28;20108;-89
2023/10/28 08:56:01;;;;;;;10.88;6.13;;;10.10;99.90;;;;;;5107087;28;20051;-91
2023/10/28 08:58:29;;;;;;;10.32;6.22;;;10.20;99.90;;;;;;5117558;28;20483;-87
2023/10/28 09:00:59;;;;;;;13.00;6.15;;;10.50;99.90;;;;;;5099973;28;20088;-88
2023/10/28 09:03:26;;;;;;;11.88;6.03;;;9.00;99.90;;;;;;5102435;28;20033;-89
2023/10/28 09:05:54;;;;;;;8.30;5.80;;;12.20;99.90;;;;;;5104801;28;20073;-86
2023/10/28 09:08:24;;;;;;;11.15;5.93;;;11.30;99.90;;;;;;5119345;28;20616;-89
2023/10/28 09:10:50;;;;;;;6.40;5.70;;;11.50;99.90;;;;;;5102551;28;20050;-90
2023/10/28 09:13:16;;;;;;;10.10;5.80;;;11.20;99.90;;;;;;5103062;27;20474;-89
2023/10/28 09:15:43;;;;;;;7.68;5.32;;;10.30;99.90;;;;;;5103697;28;20552;-87
2023/10/28 09:18:08;;;;;;;9.10;5.70;;;11.90;99.90;;;;;;5102983;27;20069;-85
2023/10/28 09:20:40;;;;;;;14.23;5.57;;;10.20;99.90;;;;;;5122438;27;20086;-87
2023/10/28 09:23:08;;;;;;;12.55;5.63;;;9.30;99.90;;;;;;5119772;27;20043;-88
2023/10/28 09:25:37;;;;;;;13.40;5.78;;;10.30;99.90;;;;;;5115259;27;20490;-87
2023/10/28 09:28:07;;;;;;;8.95;5.30;;;10.90;99.90;;;;;;5106706;27;20077;-88
2023/10/28 09:30:44;;;;;;;8.68;5.47;;;11.40;99.90;;;;;;5110423;28;20039;-88
2023/10/28 09:33:11;;;;;;;8.23;4.85;;;12.20;99.90;;;;;;5103611;27;20130;-86
2023/10/28 09:35:41;;;;;;;7.63;5.18;;;10.70;99.90;;;;;;5106163;27;20045;-86
2023/10/28 09:38:08;;;;;;;8.40;4.80;;;12.10;99.90;;;;;;5105850;27;20658;-88
2023/10/28 09:40:34;;;;;;;8.55;4.60;;;12.20;99.90;;;;;;5089065;27;20099;-87
2023/10/28 09:43:04;;;;;;;8.15;4.85;;;10.40;99.90;;;;;;5123847;27;20059;-88
2023/10/28 09:45:30;;;;;;;12.75;5.72;;;10.40;99.90;;;;;;5086877;28;20494;-86
2023/10/28 09:48:15;;;;;;;7.75;5.35;;;12.60;99.90;;;;;;5103045;28;20124;-88
2023/10/28 09:50:54;;;;;;;6.75;4.28;;;10.60;99.90;;;;;;5103427;28;20388;-90
2023/10/28 09:53:29;;;;;;;10.20;4.22;;;11.90;99.90;;;;;;5104114;27;20075;-85
2023/10/28 09:56:16;;;;;;;11.32;4.53;;;10.60;99.90;;;;;;5121541;27;20043;-89
2023/10/28 09:58:50;;;;;;;8.05;4.68;;;11.60;99.90;;;;;;5101624;28;20394;-90
2023/10/28 10:01:31;;;;;;;6.03;4.70;;;12.10;99.90;;;;;;5103299;27;20035;-87
2023/10/28 10:04:09;;;;;;;8.48;4.72;;;10.60;99.90;;;;;;5106202;27;20039;-89
2023/10/28 10:06:35;;;;;;;8.07;4.72;;;10.70;99.90;;;;;;5103478;28;20239;-87
2023/10/28 10:09:02;;;;;;;7.50;4.80;;;10.70;99.90;;;;;;5114517;28;20065;-90
2023/10/28 10:11:28;;;;;;;8.25;4.15;;;10.70;99.90;;;;;;5106974;27;20051;-89
2023/10/28 10:13:57;;;;;;;16.45;5.53;;;12.10;99.90;;;;;;5107559;28;20028;-88
2023/10/28 10:16:52;;;;;;;10.65;4.28;;;10.70;99.90;;;;;;5104969;27;20074;-91
2023/10/28 10:19:28;;;;;;;8.38;4.30;;;10.70;99.90;;;;;;5093540;27;20047;-92
2023/10/28 10:21:56;;;;;;;8.90;4.00;;;12.50;99.90;;;;;;5118564;27;20040;-90
2023/10/28 10:24:22;;;;;;;11.95;4.72;;;10.70;99.90;;;;;;5121410;27;20051;-89
2023/10/28 10:26:55;;;;;;;8.80;4.25;;;10.80;99.90;;;;;;5122410;27;20509;-87
2023/10/28 10:29:21;;;;;;;7.60;4.00;;;11.60;99.90;;;;;;5103736;27;20092;-88
2023/10/28 10:31:51;;;;;;;10.40;4.38;;;10.80;99.90;;;;;;5102675;28;20483;-87
2023/10/28 10:34:30;;;;;;;13.68;4.45;;;10.90;99.90;;;;;;5103311;27;20452;-89
2023/10/28 10:37:33;;;;;;;8.35;3.40;;;12.70;99.90;;;;;;5122849;27;20043;-90
2023/10/28 10:40:07;;;;;;;8.52;3.70;;;12.60;99.90;;;;;;5102939;27;20518;-88
2023/10/28 10:42:32;;;;;;;6.55;3.40;;;10.80;99.90;;;;;;5129083;27;20540;-88
2023/10/28 10:45:01;;;;;;;11.98;3.90;;;12.20;99.90;;;;;;5121446;27;20123;-87
2023/10/28 10:47:27;;;;;;;8.95;4.03;;;10.80;99.90;;;;;;5124507;27;20043;-89
2023/10/28 10:49:54;;;;;;;7.53;4.38;;;10.90;99.90;;;;;;5123757;27;20071;-87
2023/10/28 10:52:24;;;;;;;7.90;4.03;;;12.60;99.90;;;;;;5107092;27;20432;-88
2023/10/28 10:54:50;;;;;;;10.45;4.50;;;10.90;99.90;;;;;;5104188;27;20417;-91
2023/10/28 10:57:15;;;;;;;7.82;3.97;;;10.90;99.90;;;;;;5105467;27;20031;-85
2023/10/28 10:59:41;;;;;;;13.45;4.03;;;10.90;99.90;;;;;;5107289;27;20043;-87
2023/10/28 11:02:10;;;;;;;6.35;3.72;;;12.40;99.90;;;;;;5124127;27;20042;-85
2023/10/28 11:04:36;;;;;;;6.75;4.03;;;12.60;99.90;;;;;;5121023;27;20039;-89
2023/10/28 11:07:05;;;;;;;11.57;4.10;;;11.00;99.90;;;;;;5105000;27;20035;-87
2023/10/28 11:09:32;;;;;;;7.78;4.38;;;10.00;99.90;;;;;;5106294;27;20494;-85
2023/10/28 11:11:58;;;;;;;6.75;3.97;;;11.00;99.90;;;;;;5123662;27;20043;-85
2023/10/28 11:14:24;;;;;;;7.63;3.72;;;11.30;99.90;;;;;;5105694;27;20047;-88
2023/10/28 11:16:50;;;;;;;9.02;3.55;;;11.10;99.90;;;;;;5119752;27;20047;-88
2023/10/28 11:19:18;;;;;;;8.05;3.72;;;11.20;99.90;;;;;;5104628;27;20126;-89
2023/10/28 11:21:44;;;;;;;7.97;4.22;;;11.30;99.90;;;;;;5108136;27;20505;-89
2023/10/28 11:24:11;;;;;;;11.48;3.95;;;11.20;99.90;;;;;;5123601;27;20074;-79
2023/10/28 11:26:37;;;;;;;11.20;4.00;;;11.20;99.90;;;;;;5103916;27;20505;-88
2023/10/28 11:29:04;;;;;;;11.90;4.50;;;11.60;99.90;;;;;;5103828;27;20499;-90
2023/10/28 11:31:30;;;;;;;10.88;5.47;;;11.30;99.90;;;;;;5106402;27;20073;-84
2023/10/28 11:33:57;;;;;;;12.02;4.18;;;12.00;99.90;;;;;;5107145;27;20048;-89
2023/10/28 11:36:23;;;;;;;10.25;4.57;;;12.50;99.90;;;;;;5122116;27;20439;-90
2023/10/28 11:38:49;;;;;;;11.50;5.07;;;11.30;99.90;;;;;;5102256;27;20039;-87
2023/10/28 11:41:14;;;;;;;16.60;3.83;;;11.50;99.90;;;;;;5107041;27;20055;-82
2023/10/28 11:43:40;;;;;;;9.73;5.25;;;11.40;99.90;;;;;;5135786;27;20541;-83
2023/10/28 11:46:06;;;;;;;11.10;3.58;;;12.80;99.90;;;;;;5122906;27;20039;-86
2023/10/28 11:48:35;;;;;;;13.35;3.70;;;12.50;99.90;;;;;;5120133;27;20035;-83
2023/10/28 11:51:01;;;;;;;9.57;4.07;;;11.40;99.90;;;;;;5102885;27;20097;-86
2023/10/28 11:53:30;;;;;;;10.65;3.35;;;11.30;99.90;;;;;;5122406;27;20047;-86
2023/10/28 11:55:57;;;;;;;5.95;2.85;;;12.20;99.90;;;;;;5123601;27;20164;-84
2023/10/28 11:58:24;;;;;;;4.30;2.88;;;11.30;99.90;;;;;;5104304;27;20030;-85
2023/10/28 12:00:53;;;;;;;6.82;3.75;;;11.60;99.90;;;;;;5120295;27;20375;-84
2023/10/28 12:03:22;;;;;;;5.47;2.90;;;11.40;99.90;;;;;;5121446;27;20121;-84
2023/10/28 12:05:48;;;;;;;4.45;3.13;;;11.40;99.90;;;;;;5122448;27;20508;-83
2023/10/28 12:08:13;;;;;;;9.82;2.88;;;12.00;99.90;;;;;;5122608;27;20046;-84
2023/10/28 12:10:43;;;;;;;8.30;2.95;;;11.40;99.90;;;;;;5119360;27;20538;-84
2023/10/28 12:13:13;;;;;;;8.18;2.53;;;12.10;99.90;;;;;;5101882;27;20478;-83
2023/10/28 12:15:39;;;;;;;9.95;3.17;;;12.30;99.90;;;;;;5102840;27;20381;-84
2023/10/28 12:18:06;;;;;;;6.93;2.63;;;12.90;99.90;;;;;;5119507;27;20515;-84
2023/10/28 12:20:32;;;;;;;6.95;2.38;;;12.90;99.90;;;;;;5104401;27;20047;-84
2023/10/28 12:22:58;;;;;;;7.00;2.50;;;11.50;99.90;;;;;;5122790;27;20346;-84
2023/10/28 12:25:24;;;;;;;13.45;2.63;;;11.50;99.90;;;;;;5121574;27;20524;-83
2023/10/28 12:27:51;;;;;;;8.52;2.58;;;11.50;99.90;;;;;;5118694;27;20248;-84
2023/10/28 12:30:17;;;;;;;7.03;2.63;;;11.50;99.90;;;;;;5102907;27;20133;-85
2023/10/28 12:32:43;;;;;;;9.80;2.60;;;11.50;99.90;;;;;;5123108;27;20577;-84
2023/10/28 12:35:09;;;;;;;10.27;3.13;;;11.40;99.90;;;;;;5115198;27;20467;-84
2023/10/28 12:37:34;;;;;;;6.85;2.90;;;11.50;99.90;;;;;;5100316;27;20038;-84